sensor_id;sensor_type;location;lat;lon;timestamp;pressure;altitude;pressure_sealevel;temperature;humidity
32251;BME280;41295;48.518;9.206;2023-06-19T00:01:34;96834.03;;;25.14;43.39
32251;BME280;41295;48.518;9.206;2023-06-19T00:03:37;96840.19;;;25.14;43.94
32251;BME280;41295;48.518;9.206;2023-06-19T00:05:40;96843.88;;;25.13;43.84
32251;BME280;41295;48.518;9.206;2023-06-19T00:07:42;96837.69;;;25.13;43.38
32251;BME280;41295;48.518;9.206;2023-06-19T00:09:45;96833.53;;;25.10;44.19
32251;BME280;41295;48.518;9.206;2023-06-19T00:11:49;96841.53;;;25.10;44.69
32251;BME280;41295;48.518;9.206;2023-06-19T00:13:52;96847.16;;;25.07;45.35
32251;BME280;41295;48.518;9.206;2023-06-19T00:15:55;96839.81;;;25.01;45.88
32251;BME280;41295;48.518;9.206;2023-06-19T00:18:01;96841.28;;;24.95;45.70
32251;BME280;41295;48.518;9.206;2023-06-19T00:20:05;96836.25;;;24.92;46.06
32251;BME280;41295;48.518;9.206;2023-06-19T00:22:08;96840.38;;;24.86;45.97
32251;BME280;41295;48.518;9.206;2023-06-19T00:24:11;96837.88;;;24.84;45.54
32251;BME280;41295;48.518;9.206;2023-06-19T00:26:13;96831.88;;;24.82;45.96
32251;BME280;41295;48.518;9.206;2023-06-19T00:28:17;96841.19;;;24.78;46.18
32251;BME280;41295;48.518;9.206;2023-06-19T00:30:22;96842.50;;;24.74;46.12
32251;BME280;41295;48.518;9.206;2023-06-19T00:32:26;96835.66;;;24.71;46.22
32251;BME280;41295;48.518;9.206;2023-06-19T00:34:29;96839.31;;;24.70;46.37
32251;BME280;41295;48.518;9.206;2023-06-19T00:36:32;96843.97;;;24.68;46.43
32251;BME280;41295;48.518;9.206;2023-06-19T00:38:44;96838.81;;;24.67;46.76
32251;BME280;41295;48.518;9.206;2023-06-19T00:40:46;96842.59;;;24.64;47.44
32251;BME280;41295;48.518;9.206;2023-06-19T00:42:49;96852.63;;;24.62;47.79
32251;BME280;41295;48.518;9.206;2023-06-19T00:44:53;96844.09;;;24.58;47.41
32251;BME280;41295;48.518;9.206;2023-06-19T00:46:58;96841.72;;;24.55;47.59
32251;BME280;41295;48.518;9.206;2023-06-19T00:49:01;96850.88;;;24.53;47.49
32251;BME280;41295;48.518;9.206;2023-06-19T00:51:04;96849.34;;;24.50;47.86
32251;BME280;41295;48.518;9.206;2023-06-19T00:53:07;96854.00;;;24.48;47.78
32251;BME280;41295;48.518;9.206;2023-06-19T00:55:10;96858.84;;;24.44;48.33
32251;BME280;41295;48.518;9.206;2023-06-19T00:57:13;96859.28;;;24.39;48.33
32251;BME280;41295;48.518;9.206;2023-06-19T00:59:17;96865.47;;;24.40;47.98
32251;BME280;41295;48.518;9.206;2023-06-19T01:01:22;96863.75;;;24.39;48.16
32251;BME280;41295;48.518;9.206;2023-06-19T01:03:25;96863.75;;;24.39;48.35
32251;BME280;41295;48.518;9.206;2023-06-19T01:05:28;96869.25;;;24.37;48.01
32251;BME280;41295;48.518;9.206;2023-06-19T01:07:35;96864.09;;;24.36;48.43
32251;BME280;41295;48.518;9.206;2023-06-19T01:09:44;96862.44;;;24.35;48.50
32251;BME280;41295;48.518;9.206;2023-06-19T01:11:51;96859.06;;;24.33;49.01
32251;BME280;41295;48.518;9.206;2023-06-19T01:13:56;96865.53;;;24.30;49.01
32251;BME280;41295;48.518;9.206;2023-06-19T01:16:02;96871.03;;;24.29;48.75
32251;BME280;41295;48.518;9.206;2023-06-19T01:18:07;96873.84;;;24.27;48.87
32251;BME280;41295;48.518;9.206;2023-06-19T01:20:13;96884.81;;;24.24;49.00
32251;BME280;41295;48.518;9.206;2023-06-19T01:22:28;96884.28;;;24.20;48.47
32251;BME280;41295;48.518;9.206;2023-06-19T01:24:31;96886.94;;;24.20;48.49
32251;BME280;41295;48.518;9.206;2023-06-19T01:26:34;96897.59;;;24.20;47.91
32251;BME280;41295;48.518;9.206;2023-06-19T01:28:37;96921.72;;;24.19;47.73
32251;BME280;41295;48.518;9.206;2023-06-19T01:30:41;96923.38;;;24.20;47.29
32251;BME280;41295;48.518;9.206;2023-06-19T01:32:52;96933.06;;;24.21;46.65
32251;BME280;41295;48.518;9.206;2023-06-19T01:34:57;96936.53;;;24.21;46.02
32251;BME280;41295;48.518;9.206;2023-06-19T01:37:01;96939.53;;;24.18;46.65
32251;BME280;41295;48.518;9.206;2023-06-19T01:39:07;96948.47;;;24.17;47.00
32251;BME280;41295;48.518;9.206;2023-06-19T01:41:11;96959.00;;;24.19;47.45
32251;BME280;41295;48.518;9.206;2023-06-19T01:43:15;96972.72;;;24.14;47.71
32251;BME280;41295;48.518;9.206;2023-06-19T01:45:18;96968.03;;;24.08;47.67
32251;BME280;41295;48.518;9.206;2023-06-19T01:47:21;96972.66;;;24.06;47.78
32251;BME280;41295;48.518;9.206;2023-06-19T01:49:24;96957.69;;;24.05;47.85
32251;BME280;41295;48.518;9.206;2023-06-19T01:51:27;96963.69;;;24.07;47.70
32251;BME280;41295;48.518;9.206;2023-06-19T01:53:30;96971.69;;;24.07;47.73
32251;BME280;41295;48.518;9.206;2023-06-19T01:55:34;96980.97;;;24.02;47.89
32251;BME280;41295;48.518;9.206;2023-06-19T01:57:37;96983.78;;;24.01;47.47
32251;BME280;41295;48.518;9.206;2023-06-19T01:59:39;96986.59;;;23.99;47.19
32251;BME280;41295;48.518;9.206;2023-06-19T02:01:42;96978.88;;;23.96;47.45
32251;BME280;41295;48.518;9.206;2023-06-19T02:03:45;96970.09;;;23.96;47.66
32251;BME280;41295;48.518;9.206;2023-06-19T02:05:47;96969.22;;;23.95;47.32
32251;BME280;41295;48.518;9.206;2023-06-19T02:07:50;96972.91;;;23.94;47.33
32251;BME280;41295;48.518;9.206;2023-06-19T02:09:53;96969.38;;;23.94;47.77
32251;BME280;41295;48.518;9.206;2023-06-19T02:11:57;96965.88;;;23.93;47.34
32251;BME280;41295;48.518;9.206;2023-06-19T02:14:00;96965.03;;;23.93;47.88
32251;BME280;41295;48.518;9.206;2023-06-19T02:16:03;96968.00;;;23.89;47.90
32251;BME280;41295;48.518;9.206;2023-06-19T02:18:06;96969.81;;;23.89;48.04
32251;BME280;41295;48.518;9.206;2023-06-19T02:20:10;96965.50;;;23.88;48.23
32251;BME280;41295;48.518;9.206;2023-06-19T02:22:13;96962.00;;;23.87;47.96
32251;BME280;41295;48.518;9.206;2023-06-19T02:24:15;96962.84;;;23.88;48.34
32251;BME280;41295;48.518;9.206;2023-06-19T02:26:18;96962.00;;;23.87;48.23
32251;BME280;41295;48.518;9.206;2023-06-19T02:28:22;96961.16;;;23.87;47.99
32251;BME280;41295;48.518;9.206;2023-06-19T02:30:25;96962.00;;;23.87;48.22
32251;BME280;41295;48.518;9.206;2023-06-19T02:32:27;96962.16;;;23.86;48.24
32251;BME280;41295;48.518;9.206;2023-06-19T02:34:30;96966.66;;;23.85;48.56
32251;BME280;41295;48.518;9.206;2023-06-19T02:36:33;96959.47;;;23.86;48.53
32251;BME280;41295;48.518;9.206;2023-06-19T02:38:36;96952.66;;;23.83;48.94
32251;BME280;41295;48.518;9.206;2023-06-19T02:40:39;96956.13;;;23.84;48.83
32251;BME280;41295;48.518;9.206;2023-06-19T02:42:42;96965.09;;;23.83;48.91
32251;BME280;41295;48.518;9.206;2023-06-19T02:44:46;96965.25;;;23.81;48.76
32251;BME280;41295;48.518;9.206;2023-06-19T02:46:48;96957.44;;;23.79;49.01
32251;BME280;41295;48.518;9.206;2023-06-19T02:48:51;96948.59;;;23.79;49.16
32251;BME280;41295;48.518;9.206;2023-06-19T02:50:54;96949.44;;;23.79;49.45
32251;BME280;41295;48.518;9.206;2023-06-19T02:52:56;96958.41;;;23.78;49.39
32251;BME280;41295;48.518;9.206;2023-06-19T02:54:59;96967.22;;;23.79;49.33
32251;BME280;41295;48.518;9.206;2023-06-19T02:57:02;96968.22;;;23.78;49.50
32251;BME280;41295;48.518;9.206;2023-06-19T02:59:04;96975.22;;;23.79;49.06
32251;BME280;41295;48.518;9.206;2023-06-19T03:01:10;96971.00;;;23.76;49.24
32251;BME280;41295;48.518;9.206;2023-06-19T03:03:13;96975.53;;;23.76;49.47
32251;BME280;41295;48.518;9.206;2023-06-19T03:05:16;96973.84;;;23.75;49.28
32251;BME280;41295;48.518;9.206;2023-06-19T03:07:18;96982.81;;;23.74;49.34
32251;BME280;41295;48.518;9.206;2023-06-19T03:09:21;96973.00;;;23.74;49.35
32251;BME280;41295;48.518;9.206;2023-06-19T03:11:23;96978.34;;;23.74;49.40
32251;BME280;41295;48.518;9.206;2023-06-19T03:13:26;96983.66;;;23.74;49.49
32251;BME280;41295;48.518;9.206;2023-06-19T03:15:29;96996.13;;;23.74;49.53
32251;BME280;41295;48.518;9.206;2023-06-19T03:17:33;96995.28;;;23.73;49.66
32251;BME280;41295;48.518;9.206;2023-06-19T03:19:36;96991.91;;;23.71;49.71
32251;BME280;41295;48.518;9.206;2023-06-19T03:21:38;96985.63;;;23.72;49.74
32251;BME280;41295;48.518;9.206;2023-06-19T03:23:41;96992.91;;;23.70;49.47
32251;BME280;41295;48.518;9.206;2023-06-19T03:25:44;96992.91;;;23.70;49.38
32251;BME280;41295;48.518;9.206;2023-06-19T03:27:46;96994.88;;;23.68;49.49
32251;BME280;41295;48.518;9.206;2023-06-19T03:29:49;96995.19;;;23.65;49.44
32251;BME280;41295;48.518;9.206;2023-06-19T03:31:52;97004.13;;;23.64;49.44
32251;BME280;41295;48.518;9.206;2023-06-19T03:33:56;96998.16;;;23.62;49.76
32251;BME280;41295;48.518;9.206;2023-06-19T03:35:58;97000.81;;;23.62;49.49
32251;BME280;41295;48.518;9.206;2023-06-19T03:38:01;96999.81;;;23.63;49.47
32251;BME280;41295;48.518;9.206;2023-06-19T03:40:05;97003.31;;;23.63;49.36
32251;BME280;41295;48.518;9.206;2023-06-19T03:42:09;97004.28;;;23.62;49.59
32251;BME280;41295;48.518;9.206;2023-06-19T03:44:12;97004.97;;;23.64;49.40
32251;BME280;41295;48.518;9.206;2023-06-19T03:46:14;97007.78;;;23.63;49.45
32251;BME280;41295;48.518;9.206;2023-06-19T03:48:17;97011.47;;;23.62;49.43
32251;BME280;41295;48.518;9.206;2023-06-19T03:50:21;97010.59;;;23.61;49.14
32251;BME280;41295;48.518;9.206;2023-06-19T03:52:27;97009.91;;;23.59;48.99
32251;BME280;41295;48.518;9.206;2023-06-19T03:54:30;97008.09;;;23.60;49.31
32251;BME280;41295;48.518;9.206;2023-06-19T03:56:33;97008.25;;;23.58;49.14
32251;BME280;41295;48.518;9.206;2023-06-19T03:58:35;97011.72;;;23.59;49.28
32251;BME280;41295;48.518;9.206;2023-06-19T04:00:38;97018.19;;;23.56;49.34
32251;BME280;41295;48.518;9.206;2023-06-19T04:02:41;97018.50;;;23.53;49.28
32251;BME280;41295;48.518;9.206;2023-06-19T04:04:43;97013.84;;;23.55;49.32
32251;BME280;41295;48.518;9.206;2023-06-19T04:06:47;97026.03;;;23.58;49.07
32251;BME280;41295;48.518;9.206;2023-06-19T04:08:50;97016.38;;;23.57;49.16
32251;BME280;41295;48.518;9.206;2023-06-19T04:10:53;97019.03;;;23.57;48.98
32251;BME280;41295;48.518;9.206;2023-06-19T04:12:56;97015.84;;;23.53;49.13
32251;BME280;41295;48.518;9.206;2023-06-19T04:14:59;97014.16;;;23.52;49.17
32251;BME280;41295;48.518;9.206;2023-06-19T04:17:02;97015.97;;;23.51;49.29
32251;BME280;41295;48.518;9.206;2023-06-19T04:19:05;97002.53;;;23.53;49.52
32251;BME280;41295;48.518;9.206;2023-06-19T04:21:07;96998.19;;;23.52;49.62
32251;BME280;41295;48.518;9.206;2023-06-19T04:23:11;97002.38;;;23.54;49.86
32251;BME280;41295;48.518;9.206;2023-06-19T04:25:14;96997.22;;;23.53;50.12
32251;BME280;41295;48.518;9.206;2023-06-19T04:27:17;97003.09;;;23.57;50.06
32251;BME280;41295;48.518;9.206;2023-06-19T04:29:20;97003.34;;;23.53;49.84
32251;BME280;41295;48.518;9.206;2023-06-19T04:31:22;96999.19;;;23.51;49.91
32251;BME280;41295;48.518;9.206;2023-06-19T04:33:28;97000.00;;;23.51;50.12
32251;BME280;41295;48.518;9.206;2023-06-19T04:35:31;96998.47;;;23.49;50.24
32251;BME280;41295;48.518;9.206;2023-06-19T04:37:34;97012.78;;;23.48;50.47
32251;BME280;41295;48.518;9.206;2023-06-19T04:39:38;97016.25;;;23.48;51.13
32251;BME280;41295;48.518;9.206;2023-06-19T04:41:43;97020.63;;;23.49;51.90
32251;BME280;41295;48.518;9.206;2023-06-19T04:43:45;97025.09;;;23.49;51.69
32251;BME280;41295;48.518;9.206;2023-06-19T04:45:48;97016.56;;;23.45;52.91
32251;BME280;41295;48.518;9.206;2023-06-19T04:47:51;97015.13;;;23.41;53.13
32251;BME280;41295;48.518;9.206;2023-06-19T04:49:55;97014.59;;;23.37;53.30
32251;BME280;41295;48.518;9.206;2023-06-19T04:51:57;97008.44;;;23.37;53.36
32251;BME280;41295;48.518;9.206;2023-06-19T04:54:00;97004.09;;;23.36;53.92
32251;BME280;41295;48.518;9.206;2023-06-19T04:56:05;97009.41;;;23.36;54.28
32251;BME280;41295;48.518;9.206;2023-06-19T04:58:08;97010.72;;;23.31;54.05
32251;BME280;41295;48.518;9.206;2023-06-19T05:00:11;97018.00;;;23.29;54.28
32251;BME280;41295;48.518;9.206;2023-06-19T05:02:14;97020.78;;;23.28;54.40
32251;BME280;41295;48.518;9.206;2023-06-19T05:04:17;97019.94;;;23.27;54.30
32251;BME280;41295;48.518;9.206;2023-06-19T05:06:19;97021.75;;;23.27;54.30
32251;BME280;41295;48.518;9.206;2023-06-19T05:08:23;97020.25;;;23.24;54.40
32251;BME280;41295;48.518;9.206;2023-06-19T05:10:25;97020.50;;;23.21;54.99
32251;BME280;41295;48.518;9.206;2023-06-19T05:12:29;97031.28;;;23.19;54.81
32251;BME280;41295;48.518;9.206;2023-06-19T05:14:32;97026.13;;;23.18;54.90
32251;BME280;41295;48.518;9.206;2023-06-19T05:16:35;97024.47;;;23.17;55.25
32251;BME280;41295;48.518;9.206;2023-06-19T05:18:38;97026.13;;;23.18;55.70
32251;BME280;41295;48.518;9.206;2023-06-19T05:20:41;97023.47;;;23.18;55.87
32251;BME280;41295;48.518;9.206;2023-06-19T05:22:43;97028.63;;;23.19;56.58
32251;BME280;41295;48.518;9.206;2023-06-19T05:24:46;97026.13;;;23.18;56.62
32251;BME280;41295;48.518;9.206;2023-06-19T05:26:49;97030.47;;;23.19;57.10
32251;BME280;41295;48.518;9.206;2023-06-19T05:28:53;97029.50;;;23.20;57.47
32251;BME280;41295;48.518;9.206;2023-06-19T05:30:56;97020.50;;;23.21;56.89
32251;BME280;41295;48.518;9.206;2023-06-19T05:32:58;97018.84;;;23.20;56.59
32251;BME280;41295;48.518;9.206;2023-06-19T05:35:01;97033.81;;;23.21;56.29
32251;BME280;41295;48.518;9.206;2023-06-19T05:37:04;97031.28;;;23.19;56.29
32251;BME280;41295;48.518;9.206;2023-06-19T05:39:07;97034.09;;;23.18;56.18
32251;BME280;41295;48.518;9.206;2023-06-19T05:41:13;97028.78;;;23.18;56.51
32251;BME280;41295;48.518;9.206;2023-06-19T05:43:15;97032.28;;;23.18;56.69
32251;BME280;41295;48.518;9.206;2023-06-19T05:45:21;97034.94;;;23.18;56.48
32251;BME280;41295;48.518;9.206;2023-06-19T05:47:24;97038.47;;;23.19;56.37
32251;BME280;41295;48.518;9.206;2023-06-19T05:49:27;97035.50;;;23.12;56.81
32251;BME280;41295;48.518;9.206;2023-06-19T05:51:30;97039.56;;;23.16;56.85
32251;BME280;41295;48.518;9.206;2023-06-19T05:53:33;97038.56;;;23.17;57.07
32251;BME280;41295;48.518;9.206;2023-06-19T05:55:35;97039.28;;;23.19;57.11
32251;BME280;41295;48.518;9.206;2023-06-19T05:57:38;97045.00;;;23.25;56.53
32251;BME280;41295;48.518;9.206;2023-06-19T05:59:41;97049.91;;;23.19;56.68
32251;BME280;41295;48.518;9.206;2023-06-19T06:01:45;97042.09;;;23.18;56.80
32251;BME280;41295;48.518;9.206;2023-06-19T06:03:48;97040.41;;;23.17;56.90
32251;BME280;41295;48.518;9.206;2023-06-19T06:05:51;97045.72;;;23.17;56.94
32251;BME280;41295;48.518;9.206;2023-06-19T06:07:54;97041.53;;;23.24;57.19
32251;BME280;41295;48.518;9.206;2023-06-19T06:09:56;97041.22;;;23.27;56.80
32251;BME280;41295;48.518;9.206;2023-06-19T06:12:00;97042.22;;;23.26;57.21
32251;BME280;41295;48.518;9.206;2023-06-19T06:14:02;97042.34;;;23.25;57.13
32251;BME280;41295;48.518;9.206;2023-06-19T06:16:08;97045.84;;;23.25;56.79
32251;BME280;41295;48.518;9.206;2023-06-19T06:18:12;97057.72;;;23.31;56.65
32251;BME280;41295;48.518;9.206;2023-06-19T06:20:15;97054.94;;;23.33;56.59
32251;BME280;41295;48.518;9.206;2023-06-19T06:22:18;97053.94;;;23.34;56.83
32251;BME280;41295;48.518;9.206;2023-06-19T06:24:21;97050.47;;;23.33;56.74
32251;BME280;41295;48.518;9.206;2023-06-19T06:26:23;97052.97;;;23.35;56.85
32251;BME280;41295;48.518;9.206;2023-06-19T06:28:26;97057.00;;;23.39;56.81
32251;BME280;41295;48.518;9.206;2023-06-19T06:30:29;97058.00;;;23.38;56.98
32251;BME280;41295;48.518;9.206;2023-06-19T06:32:31;97067.25;;;23.43;56.44
32251;BME280;41295;48.518;9.206;2023-06-19T06:34:36;97070.75;;;23.44;56.41
32251;BME280;41295;48.518;9.206;2023-06-19T06:36:39;97077.31;;;23.50;56.27
32251;BME280;41295;48.518;9.206;2023-06-19T06:38:57;97078.44;;;23.47;56.17
32251;BME280;41295;48.518;9.206;2023-06-19T06:40:59;97074.09;;;23.46;56.11
32251;BME280;41295;48.518;9.206;2023-06-19T06:43:02;97075.94;;;23.46;56.07
32251;BME280;41295;48.518;9.206;2023-06-19T06:45:06;97074.09;;;23.46;56.23
32251;BME280;41295;48.518;9.206;2023-06-19T06:47:09;97082.06;;;23.46;56.26
32251;BME280;41295;48.518;9.206;2023-06-19T06:49:12;97082.75;;;23.48;56.57
32251;BME280;41295;48.518;9.206;2023-06-19T06:51:19;97078.53;;;23.55;56.49
32251;BME280;41295;48.518;9.206;2023-06-19T06:53:23;97090.03;;;23.56;56.37
32251;BME280;41295;48.518;9.206;2023-06-19T06:55:26;97089.88;;;23.58;55.52
32251;BME280;41295;48.518;9.206;2023-06-19T06:57:29;97092.22;;;23.71;55.77
32251;BME280;41295;48.518;9.206;2023-06-19T06:59:32;97088.31;;;23.65;55.77
32251;BME280;41295;48.518;9.206;2023-06-19T07:01:34;97094.19;;;23.69;55.75
32251;BME280;41295;48.518;9.206;2023-06-19T07:03:37;97097.41;;;23.72;55.59
32251;BME280;41295;48.518;9.206;2023-06-19T07:05:40;97109.56;;;23.75;55.94
32251;BME280;41295;48.518;9.206;2023-06-19T07:07:45;97109.41;;;23.76;55.86
32251;BME280;41295;48.518;9.206;2023-06-19T07:09:47;97107.31;;;23.80;55.43
32251;BME280;41295;48.518;9.206;2023-06-19T07:11:50;97108.59;;;23.76;55.81
32251;BME280;41295;48.518;9.206;2023-06-19T07:13:54;97104.94;;;23.77;56.12
32251;BME280;41295;48.518;9.206;2023-06-19T07:15:57;97098.34;;;23.81;56.03
32251;BME280;41295;48.518;9.206;2023-06-19T07:18:01;97100.56;;;23.86;55.85
32251;BME280;41295;48.518;9.206;2023-06-19T07:20:05;97093.28;;;23.88;55.61
32251;BME280;41295;48.518;9.206;2023-06-19T07:22:08;97075.19;;;23.91;55.54
32251;BME280;41295;48.518;9.206;2023-06-19T07:24:12;97073.91;;;23.96;55.74
32251;BME280;41295;48.518;9.206;2023-06-19T07:26:15;97079.94;;;23.98;55.66
32251;BME280;41295;48.518;9.206;2023-06-19T07:28:17;97090.97;;;24.03;55.90
32251;BME280;41295;48.518;9.206;2023-06-19T07:30:20;97088.16;;;24.05;56.14
32251;BME280;41295;48.518;9.206;2023-06-19T07:32:23;97091.38;;;24.08;56.13
32251;BME280;41295;48.518;9.206;2023-06-19T07:34:26;97094.84;;;24.09;55.95
32251;BME280;41295;48.518;9.206;2023-06-19T07:36:29;97087.69;;;24.09;56.28
32251;BME280;41295;48.518;9.206;2023-06-19T07:38:31;97081.53;;;24.09;55.89
32251;BME280;41295;48.518;9.206;2023-06-19T07:40:35;97085.88;;;24.10;56.53
32251;BME280;41295;48.518;9.206;2023-06-19T07:42:38;97091.91;;;24.12;56.76
32251;BME280;41295;48.518;9.206;2023-06-19T07:44:45;97090.22;;;24.11;56.86
32251;BME280;41295;48.518;9.206;2023-06-19T07:46:48;97087.13;;;24.15;56.77
32251;BME280;41295;48.518;9.206;2023-06-19T07:48:50;97085.28;;;24.16;56.88
32251;BME280;41295;48.518;9.206;2023-06-19T07:50:53;97093.84;;;24.20;57.06
32251;BME280;41295;48.518;9.206;2023-06-19T07:52:56;97094.38;;;24.23;56.67
32251;BME280;41295;48.518;9.206;2023-06-19T07:54:58;97083.53;;;24.35;55.43
32251;BME280;41295;48.518;9.206;2023-06-19T07:57:03;97093.50;;;24.33;55.39
32251;BME280;41295;48.518;9.206;2023-06-19T07:59:05;97091.13;;;24.30;55.44
32251;BME280;41295;48.518;9.206;2023-06-19T08:01:08;97098.66;;;24.34;55.59
32251;BME280;41295;48.518;9.206;2023-06-19T08:03:11;97097.09;;;24.42;55.60
32251;BME280;41295;48.518;9.206;2023-06-19T08:05:14;97101.72;;;24.39;55.28
32251;BME280;41295;48.518;9.206;2023-06-19T08:07:17;97094.56;;;24.40;55.30
32251;BME280;41295;48.518;9.206;2023-06-19T08:09:20;97099.28;;;24.46;55.23
32251;BME280;41295;48.518;9.206;2023-06-19T08:11:23;97097.69;;;24.54;55.19
32251;BME280;41295;48.518;9.206;2023-06-19T08:13:27;97095.19;;;24.52;55.06
32251;BME280;41295;48.518;9.206;2023-06-19T08:15:30;97093.69;;;24.49;55.04
32251;BME280;41295;48.518;9.206;2023-06-19T08:17:33;97094.34;;;24.51;55.17
32251;BME280;41295;48.518;9.206;2023-06-19T08:19:36;97093.38;;;24.53;55.47
32251;BME280;41295;48.518;9.206;2023-06-19T08:21:40;97091.38;;;24.55;55.62
32251;BME280;41295;48.518;9.206;2023-06-19T08:23:43;97093.75;;;24.58;55.78
32251;BME280;41295;48.518;9.206;2023-06-19T08:25:45;97089.66;;;24.63;55.56
32251;BME280;41295;48.518;9.206;2023-06-19T08:27:48;97088.94;;;24.61;55.50
32251;BME280;41295;48.518;9.206;2023-06-19T08:29:53;97091.16;;;24.66;55.17
32251;BME280;41295;48.518;9.206;2023-06-19T08:31:55;97093.66;;;24.68;55.30
32251;BME280;41295;48.518;9.206;2023-06-19T08:33:58;97093.53;;;24.69;55.79
32251;BME280;41295;48.518;9.206;2023-06-19T08:36:02;97088.69;;;24.73;55.00
32251;BME280;41295;48.518;9.206;2023-06-19T08:38:04;97092.44;;;24.80;54.36
32251;BME280;41295;48.518;9.206;2023-06-19T08:40:08;97092.81;;;24.85;53.59
32251;BME280;41295;48.518;9.206;2023-06-19T08:42:11;97077.50;;;24.87;52.22
32251;BME280;41295;48.518;9.206;2023-06-19T08:44:14;97076.06;;;25.12;50.77
32251;BME280;41295;48.518;9.206;2023-06-19T08:46:18;97076.69;;;25.05;50.54
32251;BME280;41295;48.518;9.206;2023-06-19T08:48:21;97081.72;;;25.08;50.36
32251;BME280;41295;48.518;9.206;2023-06-19T08:50:24;97075.53;;;25.08;49.48
32251;BME280;41295;48.518;9.206;2023-06-19T08:52:28;97091.22;;;25.11;49.60
32251;BME280;41295;48.518;9.206;2023-06-19T08:54:31;97084.44;;;25.17;47.95
32251;BME280;41295;48.518;9.206;2023-06-19T08:56:34;97080.09;;;25.16;48.09
32251;BME280;41295;48.518;9.206;2023-06-19T08:58:39;97088.13;;;25.16;48.41
32251;BME280;41295;48.518;9.206;2023-06-19T09:00:47;97088.13;;;25.16;48.53
32251;BME280;41295;48.518;9.206;2023-06-19T09:02:51;97083.91;;;25.13;48.29
32251;BME280;41295;48.518;9.206;2023-06-19T09:05:09;97085.56;;;25.14;49.10
32251;BME280;41295;48.518;9.206;2023-06-19T09:07:13;97086.25;;;25.16;49.53
32251;BME280;41295;48.518;9.206;2023-06-19T09:09:17;97087.94;;;25.17;49.54
32251;BME280;41295;48.518;9.206;2023-06-19T09:11:19;97089.94;;;25.15;49.06
32251;BME280;41295;48.518;9.206;2023-06-19T09:13:22;97086.75;;;25.12;49.08
32251;BME280;41295;48.518;9.206;2023-06-19T09:15:28;97083.91;;;25.13;49.25
32251;BME280;41295;48.518;9.206;2023-06-19T09:17:31;97086.41;;;25.15;49.54
32251;BME280;41295;48.518;9.206;2023-06-19T09:19:35;97089.00;;;25.25;49.50
32251;BME280;41295;48.518;9.206;2023-06-19T09:21:37;97085.09;;;25.37;48.46
32251;BME280;41295;48.518;9.206;2023-06-19T09:23:40;97078.69;;;25.30;49.04
32251;BME280;41295;48.518;9.206;2023-06-19T09:25:44;97080.72;;;25.36;49.74
32251;BME280;41295;48.518;9.206;2023-06-19T09:27:47;97080.47;;;25.48;49.02
32251;BME280;41295;48.518;9.206;2023-06-19T09:29:50;97089.56;;;25.63;48.52
32251;BME280;41295;48.518;9.206;2023-06-19T09:31:53;97069.84;;;25.56;48.68
32251;BME280;41295;48.518;9.206;2023-06-19T09:33:57;97074.84;;;25.59;48.80
32251;BME280;41295;48.518;9.206;2023-06-19T09:36:03;97068.22;;;25.63;48.81
32251;BME280;41295;48.518;9.206;2023-06-19T09:38:09;97065.97;;;25.77;48.32
32251;BME280;41295;48.518;9.206;2023-06-19T09:40:13;97063.13;;;25.78;47.96
32251;BME280;41295;48.518;9.206;2023-06-19T09:42:16;97065.78;;;25.78;48.48
32251;BME280;41295;48.518;9.206;2023-06-19T09:44:20;97062.75;;;26.00;47.42
32251;BME280;41295;48.518;9.206;2023-06-19T09:46:26;97066.72;;;25.96;45.16
32251;BME280;41295;48.518;9.206;2023-06-19T09:48:33;97076.22;;;25.98;43.88
32251;BME280;41295;48.518;9.206;2023-06-19T09:50:37;97070.09;;;26.14;42.37
32251;BME280;41295;48.518;9.206;2023-06-19T09:52:42;97071.75;;;26.07;42.42
32251;BME280;41295;48.518;9.206;2023-06-19T09:54:46;97072.94;;;26.04;42.49
32251;BME280;41295;48.518;9.206;2023-06-19T09:56:50;97071.91;;;26.05;42.43
32251;BME280;41295;48.518;9.206;2023-06-19T09:58:55;97068.72;;;25.93;42.78
32251;BME280;41295;48.518;9.206;2023-06-19T10:00:59;97063.19;;;25.87;42.56
32251;BME280;41295;48.518;9.206;2023-06-19T10:03:03;97064.66;;;25.81;43.16
32251;BME280;41295;48.518;9.206;2023-06-19T10:05:07;97065.50;;;25.81;43.11
32251;BME280;41295;48.518;9.206;2023-06-19T10:07:16;97068.34;;;25.80;43.26
32251;BME280;41295;48.518;9.206;2023-06-19T10:09:20;97073.00;;;25.86;43.36
32251;BME280;41295;48.518;9.206;2023-06-19T10:11:24;97079.03;;;25.88;43.45
32251;BME280;41295;48.518;9.206;2023-06-19T10:13:32;97054.66;;;25.83;43.52
32251;BME280;41295;48.518;9.206;2023-06-19T10:15:40;97060.34;;;25.88;44.04
32251;BME280;41295;48.518;9.206;2023-06-19T10:17:47;97057.00;;;25.86;44.21
32251;BME280;41295;48.518;9.206;2023-06-19T10:19:51;97056.66;;;25.89;44.27
32251;BME280;41295;48.518;9.206;2023-06-19T10:21:54;97061.53;;;25.94;44.07
32251;BME280;41295;48.518;9.206;2023-06-19T10:23:58;97061.38;;;25.96;44.32
32251;BME280;41295;48.518;9.206;2023-06-19T10:26:02;97066.09;;;26.10;43.78
32251;BME280;41295;48.518;9.206;2023-06-19T10:28:16;97058.09;;;26.10;43.52
32251;BME280;41295;48.518;9.206;2023-06-19T10:30:19;97054.56;;;26.10;43.48
32251;BME280;41295;48.518;9.206;2023-06-19T10:32:23;97052.59;;;26.12;44.05
32251;BME280;41295;48.518;9.206;2023-06-19T10:34:33;97059.25;;;26.16;44.01
32251;BME280;41295;48.518;9.206;2023-06-19T10:36:35;97045.91;;;26.16;43.69
32251;BME280;41295;48.518;9.206;2023-06-19T10:38:38;97050.25;;;26.17;43.79
32251;BME280;41295;48.518;9.206;2023-06-19T10:40:43;97040.25;;;26.19;43.62
32251;BME280;41295;48.518;9.206;2023-06-19T10:42:48;97039.25;;;26.28;43.61
32251;BME280;41295;48.518;9.206;2023-06-19T10:44:50;97058.19;;;26.44;42.10
32251;BME280;41295;48.518;9.206;2023-06-19T10:46:53;97040.44;;;26.34;42.47
32251;BME280;41295;48.518;9.206;2023-06-19T10:48:56;97058.19;;;26.35;42.53
32251;BME280;41295;48.518;9.206;2023-06-19T10:51:03;97049.47;;;26.33;42.47
32251;BME280;41295;48.518;9.206;2023-06-19T10:53:05;97048.97;;;26.38;41.94
32251;BME280;41295;48.518;9.206;2023-06-19T10:55:09;97039.31;;;26.37;41.85